createdAt,value
2023-05-21T00:05:19.361Z,19.76
2023-05-21T00:08:41.702Z,19.80
2023-05-21T00:11:47.445Z,19.69
2023-05-21T00:14:55.821Z,19.78
2023-05-21T00:17:57.009Z,19.67
2023-05-21T00:20:53.042Z,19.67
2023-05-21T00:28:31.289Z,19.57
2023-05-21T00:32:09.088Z,19.59
2023-05-21T00:35:41.486Z,19.63
2023-05-21T00:38:46.161Z,19.61
2023-05-21T00:42:12.299Z,19.50
2023-05-21T00:45:54.080Z,19.57
2023-05-21T00:56:00.126Z,19.47
2023-05-21T00:59:13.054Z,19.42
2023-05-21T01:05:48.610Z,19.43
2023-05-21T01:09:36.567Z,19.34
2023-05-21T01:13:20.275Z,19.32
2023-05-21T01:16:25.733Z,19.40
2023-05-21T01:24:09.797Z,19.45
2023-05-21T01:27:18.097Z,19.46
2023-05-21T01:30:27.563Z,19.47
2023-05-21T01:33:38.771Z,19.49
2023-05-21T01:36:48.533Z,19.57
2023-05-21T01:47:56.761Z,19.56
2023-05-21T01:53:24.777Z,19.66
2023-05-21T02:00:01.534Z,19.78
2023-05-21T02:02:49.698Z,19.56
2023-05-21T02:06:06.202Z,19.65
2023-05-21T02:09:46.994Z,19.51
2023-05-21T02:19:30.565Z,19.59
2023-05-21T02:26:05.430Z,19.52
2023-05-21T02:28:52.021Z,19.41
2023-05-21T02:32:08.819Z,19.39
2023-05-21T02:35:21.210Z,19.38
2023-05-21T02:38:38.080Z,19.33
2023-05-21T02:41:30.920Z,19.51
2023-05-21T02:44:42.017Z,19.35
2023-05-21T02:47:54.217Z,19.42
2023-05-21T02:50:59.333Z,19.39
2023-05-21T02:53:58.665Z,19.39
2023-05-21T02:57:19.734Z,19.20
2023-05-21T02:59:42.633Z,19.27
2023-05-21T03:06:40.932Z,19.37
2023-05-21T03:09:44.119Z,19.36
2023-05-21T03:12:46.478Z,19.51
2023-05-21T03:19:14.977Z,19.54
2023-05-21T03:26:43.385Z,19.42
2023-05-21T03:33:23.839Z,19.39
2023-05-21T03:36:11.315Z,19.21
2023-05-21T03:39:23.910Z,19.25
2023-05-21T03:43:03.951Z,19.19
2023-05-21T03:54:29.634Z,19.20
2023-05-21T04:01:53.361Z,18.95
2023-05-21T04:08:22.373Z,18.98
2023-05-21T04:14:34.090Z,19.28
2023-05-21T04:17:51.923Z,19.34
2023-05-21T04:20:46.742Z,19.56
2023-05-21T04:27:21.746Z,19.59
2023-05-21T04:30:21.080Z,19.81
2023-05-21T04:33:10.874Z,19.80
2023-05-21T04:36:13.592Z,19.88
2023-05-21T04:39:28.697Z,19.98
2023-05-21T04:45:57.425Z,20.10
2023-05-21T04:49:09.014Z,20.10
2023-05-21T04:51:57.193Z,20.18
2023-05-21T04:55:16.334Z,20.23
2023-05-21T04:58:53.086Z,20.40
2023-05-21T05:01:42.574Z,20.40
2023-05-21T05:08:33.651Z,20.49
2023-05-21T05:11:45.201Z,20.50
2023-05-21T05:15:03.463Z,20.69
2023-05-21T05:18:05.356Z,20.62
2023-05-21T05:24:45.582Z,20.83
2023-05-21T05:31:00.935Z,20.94
2023-05-21T05:34:01.961Z,20.97
2023-05-21T05:37:15.819Z,21.09
2023-05-21T05:40:28.766Z,21.17
2023-05-21T05:43:47.090Z,21.12
2023-05-21T05:46:56.277Z,21.27
2023-05-21T05:49:56.160Z,21.34
2023-05-21T05:52:56.523Z,21.35
2023-05-21T05:56:16.461Z,21.37
2023-05-21T05:59:15.693Z,21.53
2023-05-21T06:02:22.697Z,21.58
2023-05-21T06:05:22.358Z,21.58
2023-05-21T06:08:09.692Z,21.66
2023-05-21T06:11:12.407Z,21.72
2023-05-21T06:13:47.750Z,21.73
2023-05-21T06:16:45.428Z,21.84
2023-05-21T06:24:00.443Z,21.95
2023-05-21T06:27:12.512Z,21.85
2023-05-21T06:30:20.472Z,22.04
2023-05-21T06:32:55.162Z,22.04
2023-05-21T06:35:52.408Z,21.95
2023-05-21T06:38:53.695Z,22.08
2023-05-21T06:41:54.295Z,22.26
2023-05-21T06:44:37.976Z,22.29
2023-05-21T06:50:05.201Z,22.47
2023-05-21T06:53:09.421Z,22.36
2023-05-21T06:59:34.797Z,22.64
2023-05-21T07:05:22.620Z,22.70
2023-05-21T07:08:12.693Z,22.69
2023-05-21T07:10:56.195Z,22.78
2023-05-21T07:16:56.899Z,22.82
2023-05-21T07:19:42.589Z,22.99
2023-05-21T07:22:23.117Z,23.00
2023-05-21T07:25:19.875Z,23.07
2023-05-21T07:28:14.370Z,23.15
2023-05-21T07:31:18.604Z,23.15
2023-05-21T07:33:54.056Z,23.27
2023-05-21T07:36:48.169Z,23.30
2023-05-21T07:40:33.027Z,23.30
2023-05-21T07:44:39.829Z,23.25
2023-05-21T07:47:59.508Z,23.24
2023-05-21T07:50:44.313Z,23.33
2023-05-21T07:53:24.015Z,23.49
2023-05-21T07:56:10.149Z,23.39
2023-05-21T07:59:06.488Z,23.44
2023-05-21T08:02:25.765Z,23.57
2023-05-21T08:05:18.651Z,23.58
2023-05-21T08:08:30.540Z,23.70
2023-05-21T08:11:14.450Z,23.85
2023-05-21T08:13:46.884Z,23.83
2023-05-21T08:16:21.478Z,24.05
2023-05-21T08:18:55.037Z,23.95
2023-05-21T08:21:38.854Z,24.08
2023-05-21T08:24:21.568Z,24.05
2023-05-21T08:27:14.034Z,24.03
2023-05-21T08:29:43.444Z,24.23
2023-05-21T08:32:19.072Z,24.20
2023-05-21T08:35:33.783Z,24.22
2023-05-21T08:38:14.553Z,24.17
2023-05-21T08:40:43.994Z,24.26
2023-05-21T08:43:14.690Z,24.38
2023-05-21T08:46:08.294Z,24.44
2023-05-21T08:48:59.062Z,24.51
2023-05-21T08:51:57.245Z,24.49
2023-05-21T08:54:36.907Z,24.48
2023-05-21T08:57:22.498Z,24.53
2023-05-21T09:00:27.100Z,24.65
2023-05-21T09:03:19.739Z,24.77
2023-05-21T09:06:16.047Z,24.79
2023-05-21T09:12:12.202Z,25.05
2023-05-21T09:18:08.662Z,25.06
2023-05-21T09:20:49.136Z,25.09
2023-05-21T09:23:43.782Z,24.97
2023-05-21T09:29:10.193Z,25.08
2023-05-21T09:32:13.021Z,25.23
2023-05-21T09:37:54.097Z,25.23
2023-05-21T09:40:39.715Z,25.40
2023-05-21T09:43:15.781Z,25.51
2023-05-21T09:45:53.546Z,25.59
2023-05-21T09:48:37.411Z,25.73
2023-05-21T09:51:10.945Z,25.74
2023-05-21T09:53:48.079Z,25.81
2023-05-21T09:56:17.185Z,25.90
2023-05-21T09:59:20.103Z,26.01
2023-05-21T10:08:14.832Z,26.21
2023-05-21T10:10:57.950Z,26.38
2023-05-21T10:16:53.730Z,26.24
2023-05-21T10:20:02.335Z,26.17
2023-05-21T10:26:04.827Z,26.41
2023-05-21T10:28:44.200Z,26.47
2023-05-21T10:31:17.445Z,26.51
2023-05-21T10:34:06.697Z,26.44
2023-05-21T10:36:40.227Z,26.46
2023-05-21T10:39:27.914Z,26.47
2023-05-21T10:42:25.485Z,26.48
2023-05-21T10:45:13.015Z,26.48
2023-05-21T10:48:27.058Z,26.51
2023-05-21T10:51:38.942Z,26.58
2023-05-21T10:54:34.521Z,26.68
2023-05-21T10:57:34.172Z,26.81
2023-05-21T11:00:16.963Z,26.95
2023-05-21T11:02:58.970Z,26.96
2023-05-21T11:06:02.207Z,26.97
2023-05-21T11:08:39.880Z,27.09
2023-05-21T11:11:22.563Z,27.14
2023-05-21T11:14:02.354Z,27.14
2023-05-21T11:16:52.853Z,27.18
2023-05-21T11:19:39.599Z,27.08
2023-05-21T11:22:37.318Z,27.01
2023-05-21T11:25:30.641Z,27.07
2023-05-21T11:28:11.712Z,27.09
2023-05-21T11:31:43.555Z,27.09
2023-05-21T11:35:03.934Z,27.22
2023-05-21T11:40:56.993Z,27.31
2023-05-21T11:44:07.759Z,27.24
2023-05-21T11:49:55.959Z,27.29
2023-05-21T11:52:56.300Z,27.31
2023-05-21T11:59:12.720Z,27.25
2023-05-21T12:01:44.591Z,27.23
2023-05-21T12:04:20.555Z,27.32
2023-05-21T12:07:05.176Z,27.33
2023-05-21T12:09:46.898Z,27.51
2023-05-21T12:12:21.500Z,27.51
2023-05-21T12:14:57.452Z,27.58
2023-05-21T12:17:41.390Z,27.57
2023-05-21T12:20:21.511Z,27.65
2023-05-21T12:23:07.771Z,27.63
2023-05-21T12:26:06.452Z,27.65
2023-05-21T12:28:35.180Z,27.65
2023-05-21T12:31:05.857Z,27.82
2023-05-21T12:33:36.408Z,27.89
2023-05-21T12:36:08.443Z,27.88
2023-05-21T12:38:39.112Z,27.85
2023-05-21T12:41:12.093Z,27.86
2023-05-21T12:43:56.113Z,27.74
2023-05-21T12:46:39.251Z,27.83
2023-05-21T12:49:14.234Z,27.83
2023-05-21T12:52:07.175Z,27.93
2023-05-21T12:54:50.824Z,28.01
2023-05-21T12:57:41.392Z,28.05
2023-05-21T13:00:12.860Z,28.01
2023-05-21T13:02:53.226Z,28.07
2023-05-21T13:05:31.685Z,28.11
2023-05-21T13:08:14.602Z,28.20
2023-05-21T13:10:54.382Z,28.29
2023-05-21T13:13:46.502Z,28.28
2023-05-21T13:16:25.313Z,28.25
2023-05-21T13:19:02.081Z,28.18
2023-05-21T13:21:36.402Z,28.25
2023-05-21T13:24:10.885Z,28.28
2023-05-21T13:26:48.094Z,28.37
2023-05-21T13:29:17.443Z,28.33
2023-05-21T13:31:46.419Z,28.32
2023-05-21T13:34:20.069Z,28.31
2023-05-21T13:36:48.920Z,28.17
2023-05-21T13:39:17.816Z,28.22
2023-05-21T13:41:47.684Z,28.25
2023-05-21T13:44:16.601Z,28.23
2023-05-21T13:46:46.945Z,28.34
2023-05-21T13:49:38.007Z,28.46
2023-05-21T13:52:15.561Z,28.53
2023-05-21T13:54:48.552Z,28.49
2023-05-21T13:57:17.641Z,28.50
2023-05-21T13:59:46.652Z,28.45
2023-05-21T14:02:19.221Z,28.52
2023-05-21T14:05:09.941Z,28.65
2023-05-21T14:08:07.005Z,28.76
2023-05-21T14:11:11.123Z,28.77
2023-05-21T14:13:53.016Z,28.80
2023-05-21T14:16:29.709Z,28.92
2023-05-21T14:19:06.999Z,28.89
2023-05-21T14:21:44.481Z,28.77
2023-05-21T14:24:23.700Z,28.89
2023-05-21T14:27:06.434Z,28.88
2023-05-21T14:29:58.035Z,28.95
2023-05-21T14:33:02.067Z,28.98
2023-05-21T14:35:54.046Z,28.92
2023-05-21T14:38:50.380Z,28.83
2023-05-21T14:41:33.765Z,29.03
2023-05-21T14:44:20.283Z,28.91
2023-05-21T14:47:12.534Z,28.94
2023-05-21T14:50:00.568Z,28.81
2023-05-21T14:53:08.481Z,28.92
2023-05-21T14:56:06.761Z,29.15
2023-05-21T14:59:01.018Z,29.03
2023-05-21T15:01:32.663Z,29.00
2023-05-21T15:04:13.676Z,28.90
2023-05-21T15:06:43.190Z,29.06
2023-05-21T15:09:15.358Z,29.08
2023-05-21T15:11:57.103Z,29.26
2023-05-21T15:14:47.182Z,29.18
2023-05-21T15:17:32.006Z,29.16
2023-05-21T15:20:36.116Z,28.93
2023-05-21T15:26:14.878Z,28.76
2023-05-21T15:29:09.428Z,28.77
2023-05-21T15:31:44.207Z,28.64
2023-05-21T15:34:19.357Z,28.55
2023-05-21T15:40:10.775Z,28.41
2023-05-21T15:43:54.782Z,28.42
2023-05-21T15:46:45.941Z,28.28
2023-05-21T15:49:31.704Z,28.14
2023-05-21T15:52:25.474Z,27.95
2023-05-21T15:55:06.500Z,27.86
2023-05-21T15:58:18.744Z,27.67
2023-05-21T16:00:56.744Z,27.68
2023-05-21T16:03:35.175Z,27.65
2023-05-21T16:06:17.758Z,27.61
2023-05-21T16:08:47.420Z,27.58
2023-05-21T16:11:16.691Z,27.52
2023-05-21T16:13:47.957Z,27.43
2023-05-21T16:16:17.091Z,27.21
2023-05-21T16:18:48.044Z,27.07
2023-05-21T16:21:17.078Z,26.99
2023-05-21T16:23:46.124Z,26.89
2023-05-21T16:26:14.952Z,26.79
2023-05-21T16:31:12.865Z,26.44
2023-05-21T16:33:41.648Z,26.31
2023-05-21T16:36:12.026Z,26.17
2023-05-21T16:38:43.685Z,26.02
2023-05-21T16:41:12.698Z,25.84
2023-05-21T16:43:41.474Z,25.77
2023-05-21T16:46:10.486Z,25.62
2023-05-21T16:49:08.034Z,25.44
2023-05-21T16:51:40.544Z,25.33
2023-05-21T16:54:15.479Z,25.22
2023-05-21T16:56:55.787Z,25.12
2023-05-21T16:59:41.019Z,25.04
2023-05-21T17:02:26.319Z,25.01
2023-05-21T17:04:59.972Z,24.99
2023-05-21T17:07:37.736Z,24.99
2023-05-21T17:10:15.871Z,24.97
2023-05-21T17:12:52.431Z,24.90
2023-05-21T17:15:24.449Z,24.92
2023-05-21T17:17:58.226Z,24.84
2023-05-21T17:20:32.901Z,24.83
2023-05-21T17:23:15.077Z,24.77
2023-05-21T17:26:09.307Z,24.64
2023-05-21T17:28:50.742Z,24.53
2023-05-21T17:31:34.394Z,24.39
2023-05-21T17:34:20.766Z,24.37
2023-05-21T17:39:57.803Z,24.10
2023-05-21T17:42:28.914Z,23.97
2023-05-21T17:44:57.366Z,23.88
2023-05-21T17:47:25.922Z,23.76
2023-05-21T17:49:55.292Z,23.63
2023-05-21T17:52:24.390Z,23.50
2023-05-21T17:54:55.537Z,23.37
2023-05-21T17:57:24.605Z,23.23
2023-05-21T18:02:23.630Z,23.00
2023-05-21T18:04:52.857Z,22.81
2023-05-21T18:07:22.306Z,22.67
2023-05-21T18:09:51.500Z,22.55
2023-05-21T18:12:22.185Z,22.40
2023-05-21T18:14:51.446Z,22.36
2023-05-21T18:17:23.095Z,22.20
2023-05-21T18:19:54.897Z,22.09
2023-05-21T18:22:24.192Z,21.98
2023-05-21T18:24:53.082Z,21.89
2023-05-21T18:27:23.986Z,21.73
2023-05-21T18:29:53.109Z,21.62
2023-05-21T18:32:22.236Z,21.61
2023-05-21T18:34:51.887Z,21.60
2023-05-21T18:37:20.987Z,21.67
2023-05-21T18:39:50.204Z,21.74
2023-05-21T18:42:20.651Z,21.85
2023-05-21T18:44:52.647Z,21.97
2023-05-21T18:47:22.981Z,22.08
2023-05-21T18:49:52.480Z,22.24
2023-05-21T18:52:21.876Z,22.35
2023-05-21T18:54:52.238Z,22.48
2023-05-21T18:57:21.589Z,22.58
2023-05-21T18:59:52.086Z,22.66
2023-05-21T19:02:24.338Z,22.72
2023-05-21T19:04:54.039Z,22.71
2023-05-21T19:07:26.537Z,22.70
2023-05-21T19:12:42.550Z,22.68
2023-05-21T19:15:20.663Z,22.67
2023-05-21T19:17:50.214Z,22.63
2023-05-21T19:20:33.091Z,22.64
2023-05-21T19:23:28.316Z,22.63
2023-05-21T19:28:01.778Z,22.59
2023-05-21T19:33:15.323Z,22.70
2023-05-21T19:36:19.259Z,22.72
2023-05-21T19:38:51.771Z,22.66
2023-05-21T20:11:46.893Z,22.58
2023-05-21T20:18:32.449Z,22.44
2023-05-21T20:21:26.184Z,22.47
2023-05-21T20:29:06.590Z,22.35
2023-05-21T20:38:29.707Z,22.29
2023-05-21T20:40:46.396Z,22.22
2023-05-21T20:43:16.631Z,22.31
2023-05-21T20:45:58.169Z,22.22
2023-05-21T20:48:34.915Z,22.19
2023-05-21T20:51:29.305Z,22.15
2023-05-21T20:54:29.785Z,22.10
2023-05-21T20:57:13.579Z,22.10
2023-05-21T20:59:54.451Z,22.08
2023-05-21T21:02:23.502Z,21.99
2023-05-21T21:05:04.387Z,22.06
2023-05-21T21:07:37.796Z,22.06
2023-05-21T21:10:17.555Z,22.04
2023-05-21T21:12:51.948Z,22.00
2023-05-21T21:15:27.167Z,21.97
2023-05-21T21:17:55.883Z,21.93
2023-05-21T21:20:40.264Z,21.93
2023-05-21T21:23:13.392Z,21.93
2023-05-21T21:25:52.779Z,21.92
2023-05-21T21:29:05.746Z,21.86
2023-05-21T21:32:40.357Z,21.74
2023-05-21T21:35:48.462Z,21.80
2023-05-21T21:39:08.606Z,21.77
2023-05-21T21:45:35.561Z,21.69
2023-05-21T21:48:17.775Z,21.74
2023-05-21T21:51:15.310Z,21.73
2023-05-21T21:54:13.127Z,21.54
2023-05-21T21:57:06.741Z,21.66
2023-05-21T21:59:47.116Z,21.57
2023-05-21T22:02:35.361Z,21.47
2023-05-21T22:05:39.812Z,21.51
2023-05-21T22:08:27.800Z,21.54
2023-05-21T22:11:20.261Z,21.44
2023-05-21T22:14:15.306Z,21.37
2023-05-21T22:17:00.343Z,21.36
2023-05-21T22:19:29.251Z,21.36
2023-05-21T22:22:10.981Z,21.31
2023-05-21T22:24:49.129Z,21.38
2023-05-21T22:27:21.331Z,21.33
2023-05-21T22:29:56.193Z,21.24
2023-05-21T22:32:30.121Z,21.30
2023-05-21T22:35:06.799Z,21.18
2023-05-21T22:37:37.471Z,21.19
2023-05-21T22:40:14.603Z,21.10
2023-05-21T22:42:56.927Z,21.02
2023-05-21T22:45:30.946Z,21.02
2023-05-21T22:48:01.841Z,21.07
2023-05-21T22:50:35.315Z,21.13
2023-05-21T22:53:04.458Z,21.06
2023-05-21T22:55:39.312Z,21.16
2023-05-21T22:58:21.661Z,21.09
2023-05-21T23:00:53.394Z,21.23
2023-05-21T23:03:22.353Z,21.26
2023-05-21T23:05:51.607Z,21.19
2023-05-21T23:08:23.859Z,21.14
2023-05-21T23:11:05.962Z,21.26
2023-05-21T23:13:39.318Z,21.32
2023-05-21T23:16:20.606Z,21.30
2023-05-21T23:19:04.287Z,21.32
2023-05-21T23:21:55.533Z,21.21
2023-05-21T23:24:30.869Z,21.17
2023-05-21T23:27:03.146Z,21.20
2023-05-21T23:29:42.116Z,21.19
2023-05-21T23:32:11.424Z,21.28
2023-05-21T23:35:03.199Z,21.21
2023-05-21T23:37:32.520Z,21.37
2023-05-21T23:40:03.395Z,21.29
2023-05-21T23:42:35.545Z,21.30
2023-05-21T23:45:07.574Z,21.30
2023-05-21T23:47:36.389Z,21.27
2023-05-21T23:50:11.445Z,21.22
2023-05-21T23:52:43.369Z,21.27
2023-05-21T23:55:15.453Z,21.18
2023-05-21T23:57:48.588Z,21.24
